Time;durP1;ratioP1;P1;durP2;ratioP2;P2;SDS_P1;SDS_P2;PMS_P1;PMS_P2;Temp;Humidity;BMP_temperature;BMP_pressure;BME280_temperature;BME280_humidity;BME280_pressure;Samples;Min_cycle;Max_cycle;Signal;HPM_P1;HPM_P2
2023/01/17 01:34:35;;;;;;;9.27;2.83;;;2.70;99.90;;;;;;4695356;23;20257;31
2023/01/17 01:37:15;;;;;;;5.90;2.60;;;2.90;99.90;;;;;;4051520;29;20792;-95
2023/01/17 01:42:52;;;;;;;6.97;2.83;;;2.80;99.90;;;;;;4000324;29;20192;-93
2023/01/17 01:45:40;;;;;;;10.10;3.20;;;2.80;99.90;;;;;;3968469;29;20239;-95
2023/01/17 01:56:12;;;;;;;;;;;;;;;;;;;;;
2023/01/17 02:02:05;;;;;;;7.17;3.63;;;2.40;99.90;;;;;;3998458;29;20190;-95
2023/01/17 02:04:42;;;;;;;10.47;4.33;;;2.50;99.90;;;;;;4001291;29;20237;-94
2023/01/17 02:11:06;;;;;;;13.67;4.40;;;2.70;99.90;;;;;;3991198;29;20713;-94
2023/01/17 02:19:41;;;;;;;8.80;4.47;;;2.30;99.90;;;;;;3952372;30;20189;-96
2023/01/17 02:22:03;;;;;;;8.07;4.50;;;2.30;99.90;;;;;;3998712;29;20194;-94
2023/01/17 02:25:15;;;;;;;8.37;4.63;;;2.20;99.90;;;;;;4024254;29;20261;-94
2023/01/17 02:28:09;;;;;;;;;;;;;;;;;;;;;
2023/01/17 02:30:48;;;;;;;;;;;;;;;;;;;;;
2023/01/17 02:33:35;;;;;;;9.67;4.90;;;2.20;99.90;;;;;;4044314;29;20184;-94
2023/01/17 02:36:21;;;;;;;10.77;4.70;;;2.40;99.90;;;;;;4027007;29;20194;-94
2023/01/17 02:38:21;;;;;;;16.00;4.97;;;2.40;99.90;;;;;;4025820;29;20571;-94
2023/01/17 02:40:35;;;;;;;12.40;5.47;;;2.30;99.90;;;;;;4028143;29;20211;-94
2023/01/17 02:42:57;;;;;;;13.87;4.93;;;2.20;99.90;;;;;;4041297;29;20684;-94
2023/01/17 02:45:13;;;;;;;11.67;4.60;;;2.10;99.90;;;;;;4042753;29;20194;-93
2023/01/17 02:47:33;;;;;;;11.67;5.50;;;2.10;99.90;;;;;;4045435;29;20202;-94
2023/01/17 02:49:44;;;;;;;;;;;;;;;;;;;;;
2023/01/17 02:52:21;;;;;;;9.23;4.43;;;2.20;99.90;;;;;;4046239;29;20643;-94
2023/01/17 02:54:43;;;;;;;11.70;4.60;;;2.10;99.90;;;;;;4029277;29;20186;-93
2023/01/17 02:56:55;;;;;;;7.83;4.53;;;2.10;99.90;;;;;;4043657;29;20208;-93
2023/01/17 02:59:10;;;;;;;8.23;4.80;;;2.10;99.90;;;;;;4030328;29;20185;-96
2023/01/17 03:01:19;;;;;;;10.07;4.70;;;2.20;99.90;;;;;;4044317;29;20200;-94
2023/01/17 03:03:32;;;;;;;12.80;4.97;;;2.20;99.90;;;;;;4044744;29;20184;-92
2023/01/17 03:05:53;;;;;;;14.23;5.03;;;2.20;99.90;;;;;;4044523;29;20181;-93
2023/01/17 03:07:54;;;;;;;11.63;5.70;;;2.10;99.90;;;;;;4045831;29;20197;-94
2023/01/17 03:10:02;;;;;;;10.73;5.10;;;2.10;99.90;;;;;;4015426;29;20219;-95
2023/01/17 03:12:05;;;;;;;13.27;5.27;;;1.80;99.90;;;;;;4046967;29;20639;-94
2023/01/17 03:14:06;;;;;;;13.13;5.13;;;1.80;99.90;;;;;;4033045;29;20656;-95
2023/01/17 03:16:29;;;;;;;13.03;5.53;;;1.80;99.90;;;;;;4030065;29;20215;-94
2023/01/17 03:18:33;;;;;;;12.50;5.13;;;2.00;99.90;;;;;;4012073;29;20190;-93
2023/01/17 03:20:36;;;;;;;12.60;4.63;;;2.00;99.90;;;;;;4028375;29;20178;-93
2023/01/17 03:22:37;;;;;;;12.50;5.50;;;1.90;99.90;;;;;;4032139;29;20178;-94
2023/01/17 03:24:38;;;;;;;8.63;4.43;;;1.70;99.90;;;;;;4032235;29;20163;-94
2023/01/17 03:26:39;;;;;;;14.90;5.67;;;1.70;99.90;;;;;;4014815;29;20179;-95
2023/01/17 03:28:40;;;;;;;11.57;5.23;;;1.80;99.90;;;;;;4017023;29;20221;-94
2023/01/17 03:30:41;;;;;;;13.07;6.27;;;1.80;99.90;;;;;;4028589;29;20544;-95
2023/01/17 03:32:42;;;;;;;13.40;5.43;;;1.80;99.90;;;;;;4030668;29;20227;-94
2023/01/17 03:34:43;;;;;;;15.77;6.43;;;1.60;99.90;;;;;;4017787;29;20187;-93
2023/01/17 03:36:44;;;;;;;14.93;5.83;;;1.60;99.90;;;;;;4017708;29;20295;-92
2023/01/17 03:39:02;;;;;;;18.00;5.73;;;1.60;99.90;;;;;;4035125;29;20231;-92
2023/01/17 03:41:10;;;;;;;13.27;6.23;;;1.80;99.90;;;;;;4032922;29;20182;-93
2023/01/17 03:43:11;;;;;;;12.30;5.83;;;1.70;99.90;;;;;;4021187;29;20171;-93
2023/01/17 03:45:12;;;;;;;15.77;6.03;;;1.70;99.90;;;;;;4034184;29;20244;-93
2023/01/17 03:47:15;;;;;;;10.97;5.73;;;1.60;99.90;;;;;;4020640;29;20203;-93
2023/01/17 03:49:16;;;;;;;14.87;6.17;;;1.50;99.90;;;;;;4034486;29;20237;-94
2023/01/17 03:51:17;;;;;;;12.93;6.47;;;1.50;99.90;;;;;;4036092;29;20177;-93
2023/01/17 03:53:18;;;;;;;15.53;6.57;;;1.50;99.90;;;;;;4048990;29;20174;-94
2023/01/17 03:55:19;;;;;;;11.57;6.13;;;1.50;99.90;;;;;;4031228;29;20257;-93
2023/01/17 03:57:19;;;;;;;10.63;6.07;;;1.50;99.90;;;;;;4047701;29;20188;-94
2023/01/17 03:59:20;;;;;;;15.43;6.33;;;1.50;99.90;;;;;;4033739;29;20200;-94
2023/01/17 04:01:21;;;;;;;15.57;6.10;;;1.40;99.90;;;;;;4046798;29;20201;-94
2023/01/17 04:03:25;;;;;;;14.23;6.17;;;1.40;99.90;;;;;;4033053;29;20178;-94
2023/01/17 04:05:25;;;;;;;11.17;5.70;;;1.50;99.90;;;;;;4032263;29;20214;-92
2023/01/17 04:07:26;;;;;;;15.90;6.30;;;1.50;99.90;;;;;;4018593;29;20217;-93
2023/01/17 04:09:32;;;;;;;13.13;6.50;;;1.60;99.90;;;;;;4021558;29;20222;-94
2023/01/17 04:11:33;;;;;;;13.43;6.53;;;1.60;99.90;;;;;;4034223;29;20668;-94
2023/01/17 04:13:34;;;;;;;14.27;6.83;;;1.60;99.90;;;;;;4030936;29;20199;-93
2023/01/17 04:15:37;;;;;;;11.93;6.10;;;1.60;99.90;;;;;;4019609;29;20194;-93
2023/01/17 04:17:55;;;;;;;15.57;6.53;;;1.50;99.90;;;;;;4016585;29;20254;-93
2023/01/17 04:19:56;;;;;;;13.30;6.90;;;1.60;99.90;;;;;;4016661;29;20198;-95
2023/01/17 04:21:57;;;;;;;16.07;6.47;;;1.70;99.90;;;;;;4015373;29;20194;-95
2023/01/17 04:23:58;;;;;;;17.03;6.73;;;1.70;99.90;;;;;;4050920;29;20181;-94
2023/01/17 04:26:02;;;;;;;10.50;6.20;;;1.70;99.90;;;;;;4033791;29;20180;-93
2023/01/17 04:28:03;;;;;;;14.97;7.00;;;1.60;99.90;;;;;;4044919;29;20213;-93
2023/01/17 04:30:10;;;;;;;11.77;5.90;;;1.50;99.90;;;;;;4044491;29;20253;-94
2023/01/17 04:32:13;;;;;;;11.90;6.37;;;1.50;99.90;;;;;;4030505;29;20225;-94
2023/01/17 04:34:19;;;;;;;13.53;6.60;;;1.60;99.90;;;;;;4036202;29;20181;-94
2023/01/17 04:36:28;;;;;;;13.93;6.80;;;1.60;99.90;;;;;;4049699;29;20280;-93
2023/01/17 04:38:34;;;;;;;13.37;6.73;;;1.60;99.90;;;;;;4047094;29;20170;-93
2023/01/17 04:40:38;;;;;;;18.67;6.30;;;1.70;99.90;;;;;;4049802;29;20185;-93
2023/01/17 04:42:56;;;;;;;17.70;6.70;;;1.70;99.90;;;;;;4032199;29;20186;-93
2023/01/17 04:44:59;;;;;;;12.10;6.57;;;1.60;99.90;;;;;;4047484;29;20193;-95
2023/01/17 04:47:46;;;;;;;14.37;6.43;;;1.60;99.90;;;;;;4044154;29;20247;-94
2023/01/17 04:49:51;;;;;;;15.07;6.97;;;1.60;99.90;;;;;;4025916;29;20230;-93
2023/01/17 04:52:03;;;;;;;17.57;7.30;;;1.50;99.90;;;;;;4032726;29;20322;-95
2023/01/17 04:54:09;;;;;;;15.73;6.77;;;1.50;99.90;;;;;;4046035;29;20186;-95
2023/01/17 04:56:27;;;;;;;13.83;6.40;;;1.50;99.90;;;;;;4048241;29;20572;-93
2023/01/17 05:02:00;;;;;;;20.33;6.83;;;1.40;99.90;;;;;;4031002;29;20202;-94
2023/01/17 05:04:26;;;;;;;13.57;6.40;;;1.60;99.90;;;;;;4048885;29;20185;-95
2023/01/17 05:06:37;;;;;;;14.13;6.80;;;1.70;99.90;;;;;;4046226;29;20178;-95
2023/01/17 05:08:41;;;;;;;17.10;6.27;;;1.70;99.90;;;;;;4048379;29;20217;-94
2023/01/17 05:13:43;;;;;;;;;;;;;;;;;;;;;
2023/01/17 05:16:29;;;;;;;;;;;;;;;;;;;;;
2023/01/17 05:18:46;;;;;;;19.67;6.80;;;1.60;99.90;;;;;;4065668;29;20157;-94
2023/01/17 05:20:59;;;;;;;21.40;6.40;;;1.60;99.90;;;;;;4045064;29;20226;-94
2023/01/17 05:23:46;;;;;;;;;;;;;;;;;;;;;
2023/01/17 05:32:36;;;;;;;;;;;;;;;;;;;;;
2023/01/17 05:35:28;;;;;;;;;;;;;;;;;;;;;
2023/01/17 05:38:24;;;;;;;;;;;;;;;;;;;;;
2023/01/17 05:41:20;;;;;;;23.10;6.83;;;1.50;99.90;;;;;;4061178;29;20161;-95
2023/01/17 05:43:45;;;;;;;;;;;;;;;;;;;;;
2023/01/17 05:46:24;;;;;;;17.27;6.53;;;1.30;99.90;;;;;;4060914;29;20171;-93
2023/01/17 05:49:13;;;;;;;;;;;;;;;;;;;;;
2023/01/17 05:55:19;;;;;;;;;;;;;;;;;;;;;
2023/01/17 06:01:34;;;;;;;;;;;;;;;;;;;;;
2023/01/17 06:04:16;;;;;;;;;;;;;;;;;;;;;
2023/01/17 06:10:40;;;;;;;;;;;;;;;;;;;;;
2023/01/17 06:33:47;;;;;;;19.93;8.70;;;1.00;99.90;;;;;;4263832;23;20237;-94
2023/01/17 06:36:38;;;;;;;19.23;9.67;;;1.00;99.90;;;;;;4069654;29;20172;-96
2023/01/17 09:40:47;;;;;;;17.13;6.20;;;5.30;99.90;;;;;;4161986;23;20237;-93
2023/01/17 09:42:54;;;;;;;12.10;6.40;;;4.90;99.90;;;;;;4070765;29;20187;-93
2023/01/17 09:44:55;;;;;;;13.23;6.40;;;4.90;99.90;;;;;;4069201;29;20180;-93
2023/01/17 09:47:11;;;;;;;12.20;6.50;;;5.00;99.90;;;;;;4063770;29;20559;-92
2023/01/17 09:49:37;;;;;;;13.33;6.80;;;4.90;99.90;;;;;;4038745;29;20292;-92
2023/01/17 09:51:38;;;;;;;18.40;7.80;;;4.60;99.90;;;;;;4053297;29;20216;-92
2023/01/17 09:53:40;;;;;;;16.97;7.87;;;4.30;99.90;;;;;;4053453;29;20232;-92
2023/01/17 09:55:49;;;;;;;12.27;7.73;;;4.10;99.90;;;;;;4039288;29;20197;-93
2023/01/17 09:58:03;;;;;;;17.73;7.60;;;4.00;99.90;;;;;;4054318;29;20189;-92
2023/01/17 10:00:13;;;;;;;21.67;8.00;;;4.20;99.90;;;;;;4053335;29;20247;-93
2023/01/17 10:02:19;;;;;;;21.33;8.30;;;4.00;99.90;;;;;;4054703;29;20176;-93
2023/01/17 10:04:29;;;;;;;21.97;8.03;;;4.10;99.90;;;;;;4057097;29;20256;-92
2023/01/17 10:06:35;;;;;;;21.87;9.27;;;4.00;99.90;;;;;;4070885;29;20182;-92
2023/01/17 10:09:08;;;;;;;18.23;7.93;;;4.00;99.90;;;;;;4053843;29;20185;-92
2023/01/17 10:11:33;;;;;;;17.80;8.70;;;3.90;99.90;;;;;;4038097;29;20186;-92
2023/01/17 10:13:52;;;;;;;17.37;7.60;;;3.70;99.90;;;;;;4053426;29;20205;-93
2023/01/17 10:16:16;;;;;;;25.03;8.10;;;3.70;99.90;;;;;;4037632;29;20257;-93
2023/01/17 10:18:49;;;;;;;16.63;7.97;;;3.80;99.90;;;;;;4052909;29;20200;-94
2023/01/17 10:21:37;;;;;;;19.27;8.17;;;3.90;99.90;;;;;;4053357;29;20183;-93
2023/01/17 10:23:49;;;;;;;17.07;7.90;;;4.00;99.90;;;;;;4052925;29;20180;-92
2023/01/17 10:55:02;;;;;;;;;;;;;;;;;;;;;
2023/01/17 11:05:02;;;;;;;22.90;6.33;;;5.30;99.90;;;;;;3946367;30;20204;-95
2023/01/17 11:11:43;;;;;;;;;;;;;;;;;;;;;
2023/01/17 11:13:55;;;;;;;15.73;5.90;;;4.80;99.90;;;;;;4034693;29;20189;-95
2023/01/17 11:19:31;;;;;;;22.10;6.43;;;5.50;99.90;;;;;;4003752;29;20660;-94
2023/01/17 11:22:15;;;;;;;18.80;6.70;;;5.50;99.90;;;;;;4025925;29;20189;-96
2023/01/17 11:24:32;;;;;;;17.77;5.87;;;5.80;99.90;;;;;;4009576;29;20171;-95
2023/01/17 11:26:53;;;;;;;12.37;5.67;;;6.30;99.90;;;;;;4024829;29;20189;-94
2023/01/17 11:29:21;;;;;;;11.57;5.20;;;6.40;99.90;;;;;;4010378;29;20222;-94
2023/01/17 11:31:28;;;;;;;16.17;5.93;;;6.20;99.90;;;;;;4040092;29;20201;-95
2023/01/17 11:34:03;;;;;;;14.43;5.67;;;5.80;99.90;;;;;;4040182;29;20312;-95
2023/01/17 11:40:34;;;;;;;11.43;5.20;;;5.30;99.90;;;;;;3992528;29;20237;-95
2023/01/17 11:42:38;;;;;;;15.23;4.70;;;5.00;99.90;;;;;;3993828;29;20549;-95
2023/01/17 11:44:42;;;;;;;12.73;4.63;;;5.70;99.90;;;;;;3994570;29;20197;-94
2023/01/17 11:46:47;;;;;;;13.33;4.57;;;5.90;99.90;;;;;;4009775;29;20203;-93
2023/01/17 11:48:59;;;;;;;13.10;4.23;;;5.80;99.90;;;;;;4009376;29;20214;-94
2023/01/17 11:54:42;;;;;;;;;;;;;;;;;;;;;
2023/01/17 11:57:23;;;;;;;9.43;4.20;;;5.60;99.90;;;;;;4040668;29;20212;-95
2023/01/17 12:00:06;;;;;;;11.10;5.47;;;6.10;99.90;;;;;;4025008;29;20174;-95
2023/01/17 12:06:15;;;;;;;;;;;;;;;;;;;;;
2023/01/17 12:08:57;;;;;;;8.57;3.27;;;5.00;99.90;;;;;;4023971;29;20676;-94
2023/01/17 12:13:59;;;;;;;18.13;3.57;;;6.00;99.90;;;;;;4009851;29;20217;-94
2023/01/17 12:14:47;;;;;;;;;;;;;;;;;;;;;
2023/01/17 12:17:17;;;;;;;14.80;3.37;;;6.10;99.90;;;;;;4014928;29;20204;-94
2023/01/17 12:20:04;;;;;;;;;;;;;;;;;;;;;
2023/01/17 12:23:04;;;;;;;5.67;1.77;;;6.30;99.90;;;;;;4039385;29;20189;-94
2023/01/17 12:25:54;;;;;;;13.60;2.43;;;5.90;99.90;;;;;;4026039;29;20187;-95
2023/01/17 12:28:36;;;;;;;11.87;2.43;;;6.30;99.90;;;;;;4023599;29;20739;-94
2023/01/17 12:30:47;;;;;;;11.97;2.53;;;6.50;99.90;;;;;;4005441;29;20214;-94
2023/01/17 12:33:11;;;;;;;9.50;2.70;;;6.90;99.90;;;;;;4008311;29;20266;-94
2023/01/17 12:35:51;;;;;;;14.07;2.70;;;6.80;99.90;;;;;;4008632;29;20676;-96
2023/01/17 12:38:21;;;;;;;;;;;;;;;;;;;;;
2023/01/17 12:40:49;;;;;;;13.57;2.27;;;5.60;99.90;;;;;;4023475;29;20178;-94
2023/01/17 12:42:57;;;;;;;7.33;2.47;;;5.60;99.90;;;;;;4023668;29;20671;-94
2023/01/17 12:45:14;;;;;;;7.43;2.50;;;6.30;99.90;;;;;;4008505;29;20189;-94
2023/01/17 12:47:17;;;;;;;14.63;2.13;;;6.60;99.90;;;;;;4023490;29;20195;-95
2023/01/17 12:49:40;;;;;;;12.97;2.43;;;6.50;99.90;;;;;;4023352;29;20335;-93
2023/01/17 12:51:43;;;;;;;6.70;1.93;;;6.40;99.90;;;;;;4023183;29;20197;-94
2023/01/17 12:54:03;;;;;;;8.47;1.80;;;6.40;99.90;;;;;;4023235;29;20212;-94
2023/01/17 12:56:27;;;;;;;5.67;1.50;;;6.40;99.90;;;;;;4008047;29;20187;-93
2023/01/17 12:58:47;;;;;;;5.43;1.27;;;6.30;99.90;;;;;;4008166;29;20182;-93
2023/01/17 13:01:01;;;;;;;9.23;1.50;;;6.00;99.90;;;;;;4022989;29;20182;-94
2023/01/17 13:03:26;;;;;;;8.13;1.10;;;6.00;99.90;;;;;;4023098;29;20593;-94
2023/01/17 13:05:37;;;;;;;13.07;1.30;;;6.10;99.90;;;;;;4007860;29;20183;-93
2023/01/17 13:08:00;;;;;;;9.67;1.40;;;6.00;99.90;;;;;;4007692;29;20286;-94
2023/01/17 13:10:19;;;;;;;4.57;1.57;;;6.00;99.90;;;;;;4022842;29;20775;-94
2023/01/17 13:12:21;;;;;;;10.57;1.73;;;5.60;99.90;;;;;;4007646;29;20178;-93
2023/01/17 13:14:34;;;;;;;5.63;1.20;;;6.10;99.90;;;;;;4007637;29;20669;-95
2023/01/17 13:17:03;;;;;;;5.37;1.30;;;6.20;99.90;;;;;;4023039;29;20178;-95
2023/01/17 13:19:24;;;;;;;12.43;1.93;;;5.60;99.90;;;;;;4023115;29;20189;-94
2023/01/17 13:21:34;;;;;;;9.17;1.67;;;5.30;99.90;;;;;;4008991;29;20178;-94
2023/01/17 13:24:10;;;;;;;10.73;1.70;;;6.00;99.90;;;;;;4022927;29;20182;-93
2023/01/17 13:26:38;;;;;;;5.00;1.17;;;6.50;99.90;;;;;;4003255;29;20186;-95
2023/01/17 13:29:10;;;;;;;5.97;1.17;;;6.00;99.90;;;;;;4022859;29;20299;-95
2023/01/17 13:31:34;;;;;;;8.07;1.40;;;5.60;99.90;;;;;;4022767;29;20670;-95
2023/01/17 13:33:58;;;;;;;6.80;1.13;;;6.20;99.90;;;;;;4022982;29;20636;-94
2023/01/17 13:36:20;;;;;;;10.20;1.53;;;6.50;99.90;;;;;;4007824;29;20203;-94
2023/01/17 13:38:53;;;;;;;11.90;2.03;;;6.60;99.90;;;;;;4007695;29;20186;-94
2023/01/17 13:41:20;;;;;;;8.97;1.40;;;6.30;99.90;;;;;;4022702;29;20669;-94
2023/01/17 13:43:24;;;;;;;9.67;1.43;;;6.40;99.90;;;;;;4022478;29;20216;-94
2023/01/17 13:45:34;;;;;;;11.30;1.57;;;6.50;99.90;;;;;;4022691;29;20671;-94
2023/01/17 13:47:39;;;;;;;5.37;1.20;;;6.20;99.90;;;;;;4022611;29;20202;-94
2023/01/17 13:49:40;;;;;;;5.93;1.23;;;5.70;99.90;;;;;;4007048;29;20235;-94
2023/01/17 13:52:17;;;;;;;7.73;1.23;;;5.50;99.90;;;;;;4022260;29;20182;-94
2023/01/17 13:54:31;;;;;;;7.77;1.30;;;5.40;99.90;;;;;;4007022;29;20190;-93
2023/01/17 13:56:33;;;;;;;6.80;1.10;;;5.40;99.90;;;;;;4022010;29;20352;-94
2023/01/17 13:58:47;;;;;;;10.70;1.90;;;5.40;99.90;;;;;;4022093;29;20189;-94
2023/01/17 14:00:50;;;;;;;5.87;1.17;;;5.60;99.90;;;;;;4007077;29;20190;-94
2023/01/17 14:02:52;;;;;;;7.63;1.37;;;5.60;99.90;;;;;;4022266;29;20188;-93
2023/01/17 14:05:22;;;;;;;8.53;1.20;;;5.80;99.90;;;;;;4038380;29;20178;-93
2023/01/17 14:07:25;;;;;;;6.60;1.10;;;5.90;99.90;;;;;;4022537;29;20206;-94
2023/01/17 14:09:26;;;;;;;10.87;1.40;;;6.00;99.90;;;;;;4006841;29;20218;-93
2023/01/17 14:11:27;;;;;;;5.27;1.03;;;6.10;99.90;;;;;;4022263;29;20203;-93
2023/01/17 14:13:38;;;;;;;8.40;1.33;;;6.20;99.90;;;;;;4022139;29;20186;-93
2023/01/17 14:15:48;;;;;;;4.53;1.10;;;6.10;99.90;;;;;;4022420;29;20264;-92
2023/01/17 14:17:58;;;;;;;6.40;1.20;;;5.90;99.90;;;;;;4006836;29;20234;-93
2023/01/17 14:20:05;;;;;;;8.40;1.57;;;5.80;99.90;;;;;;4037623;29;20181;-92
2023/01/17 14:22:17;;;;;;;6.60;1.20;;;5.90;99.90;;;;;;4021732;29;20194;-93
2023/01/17 14:24:19;;;;;;;8.70;1.47;;;6.00;99.90;;;;;;4022269;29;20276;-94
2023/01/17 14:26:31;;;;;;;4.20;1.20;;;6.00;99.90;;;;;;4022209;29;20189;-94
2023/01/17 14:28:31;;;;;;;3.07;0.90;;;5.80;99.90;;;;;;4022072;29;20251;-94
2023/01/17 14:30:32;;;;;;;6.57;1.20;;;5.80;99.90;;;;;;4006862;29;20183;-94
2023/01/17 14:32:36;;;;;;;6.27;1.17;;;5.80;99.90;;;;;;4021981;29;20182;-94
2023/01/17 14:34:37;;;;;;;9.83;1.20;;;5.80;99.90;;;;;;4006868;29;20170;-93
2023/01/17 14:36:38;;;;;;;7.00;1.27;;;5.60;99.90;;;;;;4006663;29;20625;-94
2023/01/17 14:38:43;;;;;;;10.60;1.43;;;5.70;99.90;;;;;;4021637;29;20199;-94
2023/01/17 14:41:00;;;;;;;5.07;1.33;;;5.80;99.90;;;;;;4022120;29;20644;-93
2023/01/17 14:43:06;;;;;;;6.33;1.30;;;5.70;99.90;;;;;;4006699;29;20181;-93
2023/01/17 14:45:08;;;;;;;10.17;1.30;;;5.50;99.90;;;;;;4037525;29;20177;-94
2023/01/17 14:47:12;;;;;;;11.93;1.70;;;5.40;99.90;;;;;;4007202;29;20259;-93
2023/01/17 14:49:25;;;;;;;8.13;1.43;;;5.30;99.90;;;;;;4022327;29;20220;-95
2023/01/17 14:51:27;;;;;;;11.80;1.63;;;5.50;99.90;;;;;;4021904;29;20178;-94
2023/01/17 14:53:31;;;;;;;10.03;1.10;;;5.60;99.90;;;;;;4006744;29;20265;-94
2023/01/17 14:55:33;;;;;;;6.77;1.30;;;5.70;99.90;;;;;;4022324;29;20227;-94
2023/01/17 14:57:34;;;;;;;12.13;1.57;;;5.50;99.90;;;;;;4007006;29;20207;-95
2023/01/17 14:59:34;;;;;;;5.47;1.47;;;5.50;99.90;;;;;;4007090;29;20690;-93
2023/01/17 15:01:39;;;;;;;6.87;1.30;;;5.50;99.90;;;;;;4022428;29;20179;-92
2023/01/17 15:03:54;;;;;;;18.67;1.57;;;5.60;99.90;;;;;;4022046;29;20539;-94
2023/01/17 15:05:58;;;;;;;9.97;1.33;;;5.60;99.90;;;;;;4021843;29;20716;-93
2023/01/17 15:07:59;;;;;;;10.30;1.30;;;5.50;99.90;;;;;;4006683;29;20186;-94
2023/01/17 15:10:02;;;;;;;12.13;1.40;;;5.40;99.90;;;;;;4021709;29;20218;-94
2023/01/17 15:12:09;;;;;;;11.03;1.70;;;5.50;99.90;;;;;;4021581;29;20213;-93
2023/01/17 15:14:17;;;;;;;18.07;1.70;;;5.50;99.90;;;;;;4021721;29;20183;-92
2023/01/17 15:16:23;;;;;;;10.73;1.97;;;5.10;99.90;;;;;;4021963;29;20659;-94
2023/01/17 15:18:26;;;;;;;11.70;1.87;;;5.10;99.90;;;;;;4021680;29;20179;-94
2023/01/17 15:20:27;;;;;;;10.93;2.00;;;5.30;99.90;;;;;;4006515;29;20206;-93
2023/01/17 15:22:29;;;;;;;11.47;1.53;;;5.40;99.90;;;;;;4006894;29;20183;-95
2023/01/17 15:24:34;;;;;;;12.10;1.93;;;5.60;99.90;;;;;;4037084;29;20178;-93
2023/01/17 15:26:41;;;;;;;7.80;1.50;;;5.50;99.90;;;;;;4037313;29;20165;-94
2023/01/17 15:28:43;;;;;;;8.57;1.57;;;5.70;99.90;;;;;;4006390;29;20190;-93
2023/01/17 15:31:12;;;;;;;11.50;1.53;;;5.70;99.90;;;;;;4006530;29;20191;-94
2023/01/17 15:33:19;;;;;;;10.43;1.43;;;5.50;99.90;;;;;;4022044;29;20303;-94
2023/01/17 15:35:21;;;;;;;8.40;1.43;;;5.40;99.90;;;;;;4024056;29;20181;-94
2023/01/17 15:37:35;;;;;;;10.80;1.53;;;5.30;99.90;;;;;;4009413;29;20203;-94
2023/01/17 15:39:39;;;;;;;10.03;1.20;;;5.20;99.90;;;;;;4024212;29;20246;-94
2023/01/17 15:41:39;;;;;;;16.63;1.90;;;5.40;99.90;;;;;;4024413;29;20182;-93
2023/01/17 15:43:41;;;;;;;9.87;1.87;;;5.60;99.90;;;;;;4009350;29;20727;-93
2023/01/17 15:45:54;;;;;;;12.03;2.00;;;5.50;99.90;;;;;;4024739;29;20171;-93
2023/01/17 15:47:56;;;;;;;13.80;2.03;;;5.40;99.90;;;;;;4024128;29;20213;-94
2023/01/17 15:49:58;;;;;;;15.30;1.60;;;5.30;99.90;;;;;;4008941;29;20306;-94
2023/01/17 15:52:04;;;;;;;8.47;1.30;;;5.20;99.90;;;;;;4024420;29;20178;-94
2023/01/17 15:54:42;;;;;;;10.73;1.50;;;5.40;99.90;;;;;;4024303;29;20277;-94
2023/01/17 15:56:44;;;;;;;13.47;1.47;;;5.60;99.90;;;;;;4024224;29;20198;-93
2023/01/17 15:58:47;;;;;;;15.93;1.77;;;5.60;99.90;;;;;;4024352;29;20193;-93
2023/01/17 16:00:48;;;;;;;14.57;1.80;;;5.50;99.90;;;;;;4024557;29;20189;-94
2023/01/17 16:02:57;;;;;;;10.00;1.80;;;5.10;99.90;;;;;;4024379;29;20186;-94
2023/01/17 16:05:00;;;;;;;9.17;2.30;;;4.40;99.90;;;;;;4024159;29;20174;-95
2023/01/17 16:07:20;;;;;;;12.63;3.67;;;3.80;99.90;;;;;;4023993;29;20315;-94
2023/01/17 16:09:23;;;;;;;10.63;3.47;;;3.50;99.90;;;;;;4023850;29;20214;-95
2023/01/17 16:11:28;;;;;;;10.77;2.97;;;3.40;99.90;;;;;;4024202;29;20194;-96
2023/01/17 16:13:35;;;;;;;11.17;3.97;;;3.20;99.90;;;;;;4024176;29;20182;-94
2023/01/17 16:15:41;;;;;;;12.83;5.03;;;2.90;99.90;;;;;;4024066;29;20186;-94
2023/01/17 16:17:46;;;;;;;13.80;4.83;;;2.60;99.90;;;;;;4009311;29;20272;-95
2023/01/17 16:19:47;;;;;;;12.53;4.20;;;2.50;99.90;;;;;;4009119;29;20183;-94
2023/01/17 16:21:49;;;;;;;12.63;3.17;;;2.30;99.90;;;;;;4008857;29;20526;-94
2023/01/17 16:23:52;;;;;;;12.97;4.47;;;2.10;99.90;;;;;;4024488;29;20219;-95
2023/01/17 16:25:53;;;;;;;9.30;3.23;;;2.10;99.90;;;;;;4008483;29;20187;-94
2023/01/17 16:27:53;;;;;;;8.40;2.57;;;1.90;99.90;;;;;;4023786;29;20231;-95
2023/01/17 16:29:54;;;;;;;6.63;2.00;;;1.90;99.90;;;;;;4024034;29;20329;-94
2023/01/17 16:31:55;;;;;;;8.73;2.17;;;1.80;99.90;;;;;;4023921;29;20210;-94
2023/01/17 16:33:56;;;;;;;10.77;1.87;;;2.10;99.90;;;;;;4023574;29;20193;-94
2023/01/17 16:35:56;;;;;;;9.73;1.70;;;2.20;99.90;;;;;;4008263;29;20264;-94
2023/01/17 16:37:59;;;;;;;9.37;1.83;;;2.20;99.90;;;;;;4008583;29;20207;-94
2023/01/17 16:43:02;;;;;;;11.70;2.60;;;2.00;99.90;;;;;;4030947;29;20232;-94
2023/01/17 16:45:05;;;;;;;7.63;3.03;;;1.80;99.90;;;;;;4025707;29;20246;-95
2023/01/17 16:47:16;;;;;;;;;;;;;;;;;;;;;
2023/01/17 16:49:38;;;;;;;24.83;8.20;;;1.60;99.90;;;;;;4041301;29;20647;-95
2023/01/17 16:52:00;;;;;;;33.93;11.33;;;1.60;99.90;;;;;;4026284;29;20664;-94
2023/01/17 16:54:47;;;;;;;60.10;20.03;;;1.70;99.90;;;;;;4011378;29;20183;-95
2023/01/17 16:56:57;;;;;;;36.27;16.00;;;1.70;99.90;;;;;;4025710;29;20596;-96
2023/01/17 16:59:19;;;;;;;26.93;10.70;;;1.80;99.90;;;;;;4027619;29;20176;-94
2023/01/17 17:01:28;;;;;;;18.07;6.43;;;1.90;99.90;;;;;;4026101;29;20178;-96
2023/01/17 17:03:56;;;;;;;15.07;5.33;;;1.90;99.90;;;;;;4011573;29;20266;-94
2023/01/17 17:06:12;;;;;;;;;;;;;;;;;;;;;
2023/01/17 17:08:27;;;;;;;;;;;;;;;;;;;;;
2023/01/17 17:10:48;;;;;;;17.57;4.90;;;1.90;99.90;;;;;;4043032;29;20667;-96
2023/01/17 17:12:55;;;;;;;13.87;3.77;;;1.80;99.90;;;;;;4013592;29;20179;-95
2023/01/17 17:15:07;;;;;;;9.60;3.57;;;1.90;99.90;;;;;;4028455;29;20182;-95
2023/01/17 17:17:23;;;;;;;15.10;2.80;;;1.90;99.90;;;;;;4025711;29;20194;-94
2023/01/17 17:19:46;;;;;;;12.10;2.87;;;1.90;99.90;;;;;;4025418;29;20178;-94
2023/01/17 17:22:05;;;;;;;10.63;2.93;;;2.00;99.90;;;;;;4027438;29;20198;-95
2023/01/17 17:24:43;;;;;;;11.20;3.43;;;2.10;99.90;;;;;;4028732;29;20186;-95
2023/01/17 17:27:36;;;;;;;12.40;3.80;;;2.20;99.90;;;;;;4026576;29;20209;-96
2023/01/17 17:30:33;;;;;;;;;;;;;;;;;;;;;
2023/01/17 17:33:31;;;;;;;11.93;4.33;;;2.30;99.90;;;;;;4038569;29;20232;-95
2023/01/17 17:36:11;;;;;;;8.50;3.40;;;2.40;99.90;;;;;;4036643;29;20546;-96
2023/01/17 17:39:26;;;;;;;10.83;2.90;;;2.50;99.90;;;;;;4013862;29;20302;-96
2023/01/17 17:42:04;;;;;;;6.73;2.50;;;2.50;99.90;;;;;;4032890;29;20268;-93
2023/01/17 17:44:59;;;;;;;;;;;;;;;;;;;;;
2023/01/17 17:48:10;;;;;;;12.27;4.33;;;2.70;99.90;;;;;;4026805;29;20213;-96
2023/01/17 18:00:44;;;;;;;;;;;;;;;;;;;;;
2023/01/17 18:03:35;;;;;;;11.30;2.43;;;2.60;99.90;;;;;;3968562;30;20195;-94
2023/01/17 18:10:43;;;;;;;;;;;;;;;;;;;;;
2023/01/17 18:13:52;;;;;;;;;;;;;;;;;;;;;
2023/01/17 18:17:04;;;;;;;;;;;;;;;;;;;;;
2023/01/17 18:19:58;;;;;;;;;;;;;;;;;;;;;
2023/01/17 18:29:11;;;;;;;11.53;4.03;;;2.60;99.90;;;;;;4013194;29;20564;-95
2023/01/17 18:31:12;;;;;;;9.93;4.70;;;2.60;99.90;;;;;;3995587;29;20600;-92
2023/01/17 18:33:12;;;;;;;17.07;5.33;;;2.60;99.90;;;;;;4022374;29;20174;-94
2023/01/17 18:35:13;;;;;;;17.67;4.63;;;2.60;99.90;;;;;;4007031;29;20271;-92
2023/01/17 18:37:14;;;;;;;10.63;3.70;;;2.60;99.90;;;;;;4022257;29;20198;-93
2023/01/17 18:39:23;;;;;;;13.20;3.37;;;2.70;99.90;;;;;;4022079;29;20250;-92
2023/01/17 18:41:28;;;;;;;12.67;3.30;;;2.70;99.90;;;;;;4022075;29;20182;-93
2023/01/17 18:43:29;;;;;;;9.93;3.30;;;2.70;99.90;;;;;;4037587;29;20228;-92
2023/01/17 18:45:31;;;;;;;6.87;3.00;;;2.70;99.90;;;;;;4022042;29;20186;-94
2023/01/17 18:47:31;;;;;;;9.17;2.77;;;2.70;99.90;;;;;;4037405;29;20197;-94
2023/01/17 18:49:32;;;;;;;9.57;2.60;;;2.80;99.90;;;;;;4006602;29;20247;-93
2023/01/17 18:51:33;;;;;;;8.10;3.03;;;2.80;99.90;;;;;;4006803;29;20189;-93
2023/01/17 18:53:36;;;;;;;8.23;2.60;;;2.80;99.90;;;;;;4022215;29;20209;-94
2023/01/17 18:55:37;;;;;;;9.33;3.13;;;2.90;99.90;;;;;;4006857;29;20178;-95
2023/01/17 18:57:37;;;;;;;9.50;2.60;;;2.90;99.90;;;;;;4022112;29;20253;-93
2023/01/17 18:59:38;;;;;;;9.93;2.40;;;2.90;99.90;;;;;;4006959;29;20206;-92
2023/01/17 19:01:43;;;;;;;10.50;3.00;;;2.90;99.90;;;;;;4021914;29;20200;-95
2023/01/17 19:03:46;;;;;;;8.33;2.37;;;2.90;99.90;;;;;;4006609;29;20175;-94
2023/01/17 19:05:47;;;;;;;9.83;2.37;;;2.90;99.90;;;;;;4021963;29;21263;-94
2023/01/17 19:07:48;;;;;;;9.87;2.80;;;3.00;99.90;;;;;;4006587;29;20195;-92
2023/01/17 19:09:49;;;;;;;6.47;3.17;;;2.90;99.90;;;;;;4009528;29;20286;-93
2023/01/17 19:11:50;;;;;;;10.17;3.70;;;3.00;99.90;;;;;;4024797;29;20221;-95
2023/01/17 19:13:52;;;;;;;8.60;2.67;;;2.90;99.90;;;;;;4025105;29;20218;-91
2023/01/17 19:15:58;;;;;;;9.43;2.30;;;2.90;99.90;;;;;;4024803;29;20197;-92
2023/01/17 19:17:59;;;;;;;10.03;2.57;;;2.80;99.90;;;;;;4024609;29;20281;-95
2023/01/17 19:20:00;;;;;;;14.60;4.73;;;2.80;99.90;;;;;;4009465;29;20182;-92
2023/01/17 19:22:00;;;;;;;13.07;4.17;;;2.70;99.90;;;;;;4024591;29;20182;-92
2023/01/17 19:24:01;;;;;;;11.43;4.63;;;2.70;99.90;;;;;;4024691;29;20183;-93
2023/01/17 19:26:07;;;;;;;11.17;4.00;;;2.70;99.90;;;;;;4024857;29;20183;-92
2023/01/17 19:28:08;;;;;;;9.07;4.20;;;2.70;99.90;;;;;;4024574;29;20198;-92